sensor_id;sensor_type;location;lat;lon;timestamp;temperature;humidity
18287;DHT22;9269;50.838;12.094;2023-06-10T00:00:50;23.70;25.80
18287;DHT22;9269;50.838;12.094;2023-06-10T00:03:19;23.90;26.00
18287;DHT22;9269;50.838;12.094;2023-06-10T00:05:52;23.70;26.00
18287;DHT22;9269;50.838;12.094;2023-06-10T00:08:20;23.70;26.10
18287;DHT22;9269;50.838;12.094;2023-06-10T00:10:49;23.70;25.80
18287;DHT22;9269;50.838;12.094;2023-06-10T00:13:18;23.70;26.40
18287;DHT22;9269;50.838;12.094;2023-06-10T00:15:46;23.60;26.70
18287;DHT22;9269;50.838;12.094;2023-06-10T00:18:15;23.60;27.10
18287;DHT22;9269;50.838;12.094;2023-06-10T00:20:45;23.60;27.80
18287;DHT22;9269;50.838;12.094;2023-06-10T00:23:17;23.50;27.80
18287;DHT22;9269;50.838;12.094;2023-06-10T00:25:46;23.40;27.10
18287;DHT22;9269;50.838;12.094;2023-06-10T00:28:14;23.40;27.20
18287;DHT22;9269;50.838;12.094;2023-06-10T00:30:42;23.40;27.40
18287;DHT22;9269;50.838;12.094;2023-06-10T00:33:11;23.30;27.30
18287;DHT22;9269;50.838;12.094;2023-06-10T00:35:39;23.30;28.00
18287;DHT22;9269;50.838;12.094;2023-06-10T00:38:08;23.30;27.50
18287;DHT22;9269;50.838;12.094;2023-06-10T00:40:40;23.40;27.60
18287;DHT22;9269;50.838;12.094;2023-06-10T00:43:09;23.30;27.90
18287;DHT22;9269;50.838;12.094;2023-06-10T00:45:37;23.30;28.20
18287;DHT22;9269;50.838;12.094;2023-06-10T00:48:06;23.30;27.90
18287;DHT22;9269;50.838;12.094;2023-06-10T00:50:35;23.20;28.20
18287;DHT22;9269;50.838;12.094;2023-06-10T00:53:06;23.20;28.20
18287;DHT22;9269;50.838;12.094;2023-06-10T00:55:37;23.30;28.20
18287;DHT22;9269;50.838;12.094;2023-06-10T00:58:07;23.10;28.20
18287;DHT22;9269;50.838;12.094;2023-06-10T01:00:36;23.10;28.20
18287;DHT22;9269;50.838;12.094;2023-06-10T01:03:05;23.10;28.20
18287;DHT22;9269;50.838;12.094;2023-06-10T01:05:35;23.00;28.10
18287;DHT22;9269;50.838;12.094;2023-06-10T01:08:09;23.10;28.50
18287;DHT22;9269;50.838;12.094;2023-06-10T01:10:43;23.00;28.70
18287;DHT22;9269;50.838;12.094;2023-06-10T01:13:17;23.00;28.60
18287;DHT22;9269;50.838;12.094;2023-06-10T01:15:45;23.00;28.60
18287;DHT22;9269;50.838;12.094;2023-06-10T01:18:14;22.90;29.00
18287;DHT22;9269;50.838;12.094;2023-06-10T01:20:44;22.90;28.70
18287;DHT22;9269;50.838;12.094;2023-06-10T01:23:15;22.80;28.80
18287;DHT22;9269;50.838;12.094;2023-06-10T01:25:47;22.80;28.90
18287;DHT22;9269;50.838;12.094;2023-06-10T01:28:22;22.80;29.20
18287;DHT22;9269;50.838;12.094;2023-06-10T01:30:59;22.80;28.70
18287;DHT22;9269;50.838;12.094;2023-06-10T01:33:37;22.70;29.00
18287;DHT22;9269;50.838;12.094;2023-06-10T01:36:07;22.70;29.00
18287;DHT22;9269;50.838;12.094;2023-06-10T01:38:42;22.70;28.60
18287;DHT22;9269;50.838;12.094;2023-06-10T01:41:13;22.70;29.10
18287;DHT22;9269;50.838;12.094;2023-06-10T01:43:42;22.70;29.10
18287;DHT22;9269;50.838;12.094;2023-06-10T01:46:11;22.60;29.40
18287;DHT22;9269;50.838;12.094;2023-06-10T01:48:41;22.60;29.10
18287;DHT22;9269;50.838;12.094;2023-06-10T01:51:10;22.60;29.10
18287;DHT22;9269;50.838;12.094;2023-06-10T01:53:40;22.50;29.60
18287;DHT22;9269;50.838;12.094;2023-06-10T01:56:09;22.40;29.20
18287;DHT22;9269;50.838;12.094;2023-06-10T01:58:44;22.40;29.70
18287;DHT22;9269;50.838;12.094;2023-06-10T02:01:13;22.40;29.20
18287;DHT22;9269;50.838;12.094;2023-06-10T02:03:42;22.40;29.70
18287;DHT22;9269;50.838;12.094;2023-06-10T02:06:10;22.40;29.90
18287;DHT22;9269;50.838;12.094;2023-06-10T02:08:40;22.30;29.70
18287;DHT22;9269;50.838;12.094;2023-06-10T02:11:09;22.40;29.70
18287;DHT22;9269;50.838;12.094;2023-06-10T02:13:38;22.30;29.70
18287;DHT22;9269;50.838;12.094;2023-06-10T02:16:06;22.20;30.20
18287;DHT22;9269;50.838;12.094;2023-06-10T02:18:34;22.30;30.30
18287;DHT22;9269;50.838;12.094;2023-06-10T02:21:03;22.20;30.20
18287;DHT22;9269;50.838;12.094;2023-06-10T02:23:32;22.10;29.90
18287;DHT22;9269;50.838;12.094;2023-06-10T02:26:02;22.20;29.90
18287;DHT22;9269;50.838;12.094;2023-06-10T02:28:30;22.20;30.30
18287;DHT22;9269;50.838;12.094;2023-06-10T02:30:59;22.20;30.70
18287;DHT22;9269;50.838;12.094;2023-06-10T02:33:27;22.10;30.60
18287;DHT22;9269;50.838;12.094;2023-06-10T02:35:55;22.10;30.40
18287;DHT22;9269;50.838;12.094;2023-06-10T02:38:24;22.20;30.50
18287;DHT22;9269;50.838;12.094;2023-06-10T02:40:52;22.10;30.30
18287;DHT22;9269;50.838;12.094;2023-06-10T02:43:22;22.00;30.80
18287;DHT22;9269;50.838;12.094;2023-06-10T02:45:51;22.00;30.70
18287;DHT22;9269;50.838;12.094;2023-06-10T02:48:19;22.00;31.00
18287;DHT22;9269;50.838;12.094;2023-06-10T02:50:47;21.90;30.70
18287;DHT22;9269;50.838;12.094;2023-06-10T02:53:17;22.00;30.70
18287;DHT22;9269;50.838;12.094;2023-06-10T02:55:45;21.90;30.50
18287;DHT22;9269;50.838;12.094;2023-06-10T02:58:14;21.90;30.60
18287;DHT22;9269;50.838;12.094;2023-06-10T03:00:44;21.90;30.80
18287;DHT22;9269;50.838;12.094;2023-06-10T03:03:12;21.80;31.00
18287;DHT22;9269;50.838;12.094;2023-06-10T03:05:41;21.90;30.60
18287;DHT22;9269;50.838;12.094;2023-06-10T03:08:09;21.80;30.60
18287;DHT22;9269;50.838;12.094;2023-06-10T03:10:38;21.80;30.80
18287;DHT22;9269;50.838;12.094;2023-06-10T03:13:06;21.80;30.70
18287;DHT22;9269;50.838;12.094;2023-06-10T03:15:35;21.80;30.80
18287;DHT22;9269;50.838;12.094;2023-06-10T03:18:05;21.80;31.10
18287;DHT22;9269;50.838;12.094;2023-06-10T03:20:34;21.70;31.10
18287;DHT22;9269;50.838;12.094;2023-06-10T03:23:05;21.70;31.20
18287;DHT22;9269;50.838;12.094;2023-06-10T03:25:34;21.70;31.10
18287;DHT22;9269;50.838;12.094;2023-06-10T03:28:02;21.70;31.30
18287;DHT22;9269;50.838;12.094;2023-06-10T03:30:31;21.70;31.20
18287;DHT22;9269;50.838;12.094;2023-06-10T03:32:59;21.60;31.50
18287;DHT22;9269;50.838;12.094;2023-06-10T03:35:29;21.60;31.40
18287;DHT22;9269;50.838;12.094;2023-06-10T03:37:58;21.60;31.60
18287;DHT22;9269;50.838;12.094;2023-06-10T03:40:27;21.70;31.60
18287;DHT22;9269;50.838;12.094;2023-06-10T03:42:57;21.70;31.30
18287;DHT22;9269;50.838;12.094;2023-06-10T03:45:25;21.60;31.60
18287;DHT22;9269;50.838;12.094;2023-06-10T03:47:56;21.60;31.70
18287;DHT22;9269;50.838;12.094;2023-06-10T03:50:25;21.60;31.90
18287;DHT22;9269;50.838;12.094;2023-06-10T03:52:55;21.60;32.00
18287;DHT22;9269;50.838;12.094;2023-06-10T03:55:23;21.60;32.00
18287;DHT22;9269;50.838;12.094;2023-06-10T03:57:51;21.60;31.80
18287;DHT22;9269;50.838;12.094;2023-06-10T04:00:20;21.60;31.60
18287;DHT22;9269;50.838;12.094;2023-06-10T04:02:49;21.60;31.60
18287;DHT22;9269;50.838;12.094;2023-06-10T04:05:19;21.60;31.70
18287;DHT22;9269;50.838;12.094;2023-06-10T04:07:49;21.70;31.50
18287;DHT22;9269;50.838;12.094;2023-06-10T04:10:19;21.70;31.80
18287;DHT22;9269;50.838;12.094;2023-06-10T04:12:48;21.80;31.70
18287;DHT22;9269;50.838;12.094;2023-06-10T04:15:16;21.70;31.50
18287;DHT22;9269;50.838;12.094;2023-06-10T04:17:45;21.80;31.70
18287;DHT22;9269;50.838;12.094;2023-06-10T04:20:14;21.70;31.50
18287;DHT22;9269;50.838;12.094;2023-06-10T04:22:42;21.70;31.80
18287;DHT22;9269;50.838;12.094;2023-06-10T04:25:11;21.80;31.80
18287;DHT22;9269;50.838;12.094;2023-06-10T04:27:41;21.70;32.10
18287;DHT22;9269;50.838;12.094;2023-06-10T04:30:11;21.70;32.20
18287;DHT22;9269;50.838;12.094;2023-06-10T04:32:39;21.80;32.10
18287;DHT22;9269;50.838;12.094;2023-06-10T04:35:11;21.80;32.70
18287;DHT22;9269;50.838;12.094;2023-06-10T04:37:39;21.80;32.80
18287;DHT22;9269;50.838;12.094;2023-06-10T04:40:09;21.80;32.40
18287;DHT22;9269;50.838;12.094;2023-06-10T04:42:37;21.80;32.40
18287;DHT22;9269;50.838;12.094;2023-06-10T04:45:08;22.00;32.40
18287;DHT22;9269;50.838;12.094;2023-06-10T04:47:37;22.00;32.20
18287;DHT22;9269;50.838;12.094;2023-06-10T04:50:06;22.10;32.50
18287;DHT22;9269;50.838;12.094;2023-06-10T04:52:35;22.10;32.30
18287;DHT22;9269;50.838;12.094;2023-06-10T04:55:04;22.10;32.40
18287;DHT22;9269;50.838;12.094;2023-06-10T04:57:34;22.20;32.40
18287;DHT22;9269;50.838;12.094;2023-06-10T05:00:03;22.20;32.60
18287;DHT22;9269;50.838;12.094;2023-06-10T05:02:34;22.10;32.50
18287;DHT22;9269;50.838;12.094;2023-06-10T05:05:03;22.10;32.70
18287;DHT22;9269;50.838;12.094;2023-06-10T05:07:31;22.20;32.80
18287;DHT22;9269;50.838;12.094;2023-06-10T05:10:00;22.20;33.10
18287;DHT22;9269;50.838;12.094;2023-06-10T05:12:28;22.30;32.80
18287;DHT22;9269;50.838;12.094;2023-06-10T05:14:57;22.30;33.00
18287;DHT22;9269;50.838;12.094;2023-06-10T05:17:25;22.30;33.20
18287;DHT22;9269;50.838;12.094;2023-06-10T05:19:55;22.40;32.90
18287;DHT22;9269;50.838;12.094;2023-06-10T05:22:24;22.50;33.00
18287;DHT22;9269;50.838;12.094;2023-06-10T05:24:53;22.60;33.00
18287;DHT22;9269;50.838;12.094;2023-06-10T05:27:22;22.60;32.60
18287;DHT22;9269;50.838;12.094;2023-06-10T05:29:50;22.60;33.10
18287;DHT22;9269;50.838;12.094;2023-06-10T05:32:19;22.70;32.80
18287;DHT22;9269;50.838;12.094;2023-06-10T05:34:47;22.70;33.20
18287;DHT22;9269;50.838;12.094;2023-06-10T05:37:17;22.80;33.00
18287;DHT22;9269;50.838;12.094;2023-06-10T05:39:45;22.80;32.60
18287;DHT22;9269;50.838;12.094;2023-06-10T05:42:14;23.00;32.80
18287;DHT22;9269;50.838;12.094;2023-06-10T05:44:42;23.00;32.60
18287;DHT22;9269;50.838;12.094;2023-06-10T05:47:10;23.00;32.90
18287;DHT22;9269;50.838;12.094;2023-06-10T05:49:39;23.10;32.80
18287;DHT22;9269;50.838;12.094;2023-06-10T05:52:08;23.10;33.20
18287;DHT22;9269;50.838;12.094;2023-06-10T05:54:37;23.20;33.10
18287;DHT22;9269;50.838;12.094;2023-06-10T05:57:06;23.20;32.60
18287;DHT22;9269;50.838;12.094;2023-06-10T05:59:35;23.30;33.20
18287;DHT22;9269;50.838;12.094;2023-06-10T06:02:04;23.40;33.10
18287;DHT22;9269;50.838;12.094;2023-06-10T06:04:34;23.40;32.60
18287;DHT22;9269;50.838;12.094;2023-06-10T06:07:04;23.50;33.00
18287;DHT22;9269;50.838;12.094;2023-06-10T06:09:33;23.50;32.90
18287;DHT22;9269;50.838;12.094;2023-06-10T06:12:03;23.60;32.80
18287;DHT22;9269;50.838;12.094;2023-06-10T06:14:37;23.60;33.20
18287;DHT22;9269;50.838;12.094;2023-06-10T06:17:06;23.70;31.90
18287;DHT22;9269;50.838;12.094;2023-06-10T06:19:34;23.80;32.10
18287;DHT22;9269;50.838;12.094;2023-06-10T06:22:03;23.80;32.20
18287;DHT22;9269;50.838;12.094;2023-06-10T06:24:32;23.90;32.30
18287;DHT22;9269;50.838;12.094;2023-06-10T06:27:00;24.00;32.20
18287;DHT22;9269;50.838;12.094;2023-06-10T06:29:30;24.00;32.40
18287;DHT22;9269;50.838;12.094;2023-06-10T06:31:59;24.10;32.00
18287;DHT22;9269;50.838;12.094;2023-06-10T06:34:28;24.10;32.10
18287;DHT22;9269;50.838;12.094;2023-06-10T06:36:56;24.20;31.90
18287;DHT22;9269;50.838;12.094;2023-06-10T06:39:25;24.30;32.00
18287;DHT22;9269;50.838;12.094;2023-06-10T06:41:53;24.40;31.80
18287;DHT22;9269;50.838;12.094;2023-06-10T06:44:22;24.40;32.20
18287;DHT22;9269;50.838;12.094;2023-06-10T06:46:51;24.50;31.80
18287;DHT22;9269;50.838;12.094;2023-06-10T06:49:20;24.60;31.80
18287;DHT22;9269;50.838;12.094;2023-06-10T06:51:48;24.70;31.70
18287;DHT22;9269;50.838;12.094;2023-06-10T06:54:17;24.70;31.90
18287;DHT22;9269;50.838;12.094;2023-06-10T06:56:45;24.80;31.70
18287;DHT22;9269;50.838;12.094;2023-06-10T06:59:14;24.90;31.70
18287;DHT22;9269;50.838;12.094;2023-06-10T07:01:44;25.00;31.70
18287;DHT22;9269;50.838;12.094;2023-06-10T07:04:15;25.10;31.50
18287;DHT22;9269;50.838;12.094;2023-06-10T07:06:44;25.10;31.10
18287;DHT22;9269;50.838;12.094;2023-06-10T07:09:12;25.20;31.50
18287;DHT22;9269;50.838;12.094;2023-06-10T07:11:41;25.30;31.20
18287;DHT22;9269;50.838;12.094;2023-06-10T07:14:09;25.40;31.20
18287;DHT22;9269;50.838;12.094;2023-06-10T07:16:38;25.50;31.50
18287;DHT22;9269;50.838;12.094;2023-06-10T07:19:06;25.50;31.40
18287;DHT22;9269;50.838;12.094;2023-06-10T07:21:36;25.60;31.40
18287;DHT22;9269;50.838;12.094;2023-06-10T07:24:12;25.70;31.40
18287;DHT22;9269;50.838;12.094;2023-06-10T07:26:41;25.80;31.30
18287;DHT22;9269;50.838;12.094;2023-06-10T07:29:09;25.90;31.00
18287;DHT22;9269;50.838;12.094;2023-06-10T07:31:38;26.00;30.90
18287;DHT22;9269;50.838;12.094;2023-06-10T07:34:07;26.00;30.70
18287;DHT22;9269;50.838;12.094;2023-06-10T07:36:36;26.10;30.70
18287;DHT22;9269;50.838;12.094;2023-06-10T07:39:05;26.20;30.90
18287;DHT22;9269;50.838;12.094;2023-06-10T07:41:35;26.20;31.00
18287;DHT22;9269;50.838;12.094;2023-06-10T07:44:03;26.30;30.60
18287;DHT22;9269;50.838;12.094;2023-06-10T07:46:32;26.30;30.50
18287;DHT22;9269;50.838;12.094;2023-06-10T07:49:00;26.50;29.80
18287;DHT22;9269;50.838;12.094;2023-06-10T07:51:29;26.70;30.00
18287;DHT22;9269;50.838;12.094;2023-06-10T07:53:59;26.70;29.40
18287;DHT22;9269;50.838;12.094;2023-06-10T07:56:27;26.80;29.70
18287;DHT22;9269;50.838;12.094;2023-06-10T07:58:56;26.80;29.20
18287;DHT22;9269;50.838;12.094;2023-06-10T08:01:25;26.90;29.50
18287;DHT22;9269;50.838;12.094;2023-06-10T08:03:53;27.10;29.20
18287;DHT22;9269;50.838;12.094;2023-06-10T08:06:22;27.10;29.10
18287;DHT22;9269;50.838;12.094;2023-06-10T08:08:50;27.30;28.90
18287;DHT22;9269;50.838;12.094;2023-06-10T08:11:20;27.40;29.00
18287;DHT22;9269;50.838;12.094;2023-06-10T08:13:49;27.50;29.20
18287;DHT22;9269;50.838;12.094;2023-06-10T08:16:17;27.50;28.90
18287;DHT22;9269;50.838;12.094;2023-06-10T08:18:46;27.50;28.90
18287;DHT22;9269;50.838;12.094;2023-06-10T08:21:14;27.60;28.80
18287;DHT22;9269;50.838;12.094;2023-06-10T08:23:43;27.60;28.80
18287;DHT22;9269;50.838;12.094;2023-06-10T08:26:12;27.70;28.80
18287;DHT22;9269;50.838;12.094;2023-06-10T08:28:43;27.70;28.50
18287;DHT22;9269;50.838;12.094;2023-06-10T08:31:12;27.90;28.70
18287;DHT22;9269;50.838;12.094;2023-06-10T08:33:41;27.90;28.20
18287;DHT22;9269;50.838;12.094;2023-06-10T08:36:10;27.90;28.10
18287;DHT22;9269;50.838;12.094;2023-06-10T08:38:40;28.10;28.30
18287;DHT22;9269;50.838;12.094;2023-06-10T08:41:10;28.10;28.40
18287;DHT22;9269;50.838;12.094;2023-06-10T08:43:48;28.40;27.90
18287;DHT22;9269;50.838;12.094;2023-06-10T08:46:20;28.40;27.30
18287;DHT22;9269;50.838;12.094;2023-06-10T08:48:55;28.50;27.30
18287;DHT22;9269;50.838;12.094;2023-06-10T08:51:27;28.50;27.90
18287;DHT22;9269;50.838;12.094;2023-06-10T08:54:02;28.60;27.10
18287;DHT22;9269;50.838;12.094;2023-06-10T08:56:39;28.70;27.10
18287;DHT22;9269;50.838;12.094;2023-06-10T08:59:11;28.80;27.50
18287;DHT22;9269;50.838;12.094;2023-06-10T09:01:41;28.80;27.50
18287;DHT22;9269;50.838;12.094;2023-06-10T09:04:11;28.90;27.50
18287;DHT22;9269;50.838;12.094;2023-06-10T09:06:42;28.90;27.60
18287;DHT22;9269;50.838;12.094;2023-06-10T09:09:14;29.00;27.20
18287;DHT22;9269;50.838;12.094;2023-06-10T09:11:44;29.10;26.70
18287;DHT22;9269;50.838;12.094;2023-06-10T09:14:14;29.20;26.50
18287;DHT22;9269;50.838;12.094;2023-06-10T09:16:45;29.30;26.10
18287;DHT22;9269;50.838;12.094;2023-06-10T09:19:18;29.40;26.50
18287;DHT22;9269;50.838;12.094;2023-06-10T09:21:50;29.50;26.70
18287;DHT22;9269;50.838;12.094;2023-06-10T09:24:22;29.60;26.10
18287;DHT22;9269;50.838;12.094;2023-06-10T09:27:02;29.60;25.90
18287;DHT22;9269;50.838;12.094;2023-06-10T09:29:46;29.70;26.00
18287;DHT22;9269;50.838;12.094;2023-06-10T09:32:19;29.80;26.50
18287;DHT22;9269;50.838;12.094;2023-06-10T09:34:50;29.90;25.80
18287;DHT22;9269;50.838;12.094;2023-06-10T09:37:23;29.90;25.60
18287;DHT22;9269;50.838;12.094;2023-06-10T09:40:03;30.00;26.20
18287;DHT22;9269;50.838;12.094;2023-06-10T09:42:38;30.20;26.20
18287;DHT22;9269;50.838;12.094;2023-06-10T09:45:12;30.20;26.40
18287;DHT22;9269;50.838;12.094;2023-06-10T09:47:41;30.20;26.00
18287;DHT22;9269;50.838;12.094;2023-06-10T09:50:14;30.30;26.10
18287;DHT22;9269;50.838;12.094;2023-06-10T09:52:46;30.40;26.00
18287;DHT22;9269;50.838;12.094;2023-06-10T09:55:16;30.30;25.00
18287;DHT22;9269;50.838;12.094;2023-06-10T09:57:49;30.40;25.30
18287;DHT22;9269;50.838;12.094;2023-06-10T10:00:23;30.40;25.10
18287;DHT22;9269;50.838;12.094;2023-06-10T10:02:53;30.50;25.50
18287;DHT22;9269;50.838;12.094;2023-06-10T10:05:23;30.50;25.30
18287;DHT22;9269;50.838;12.094;2023-06-10T10:07:53;30.60;25.10
18287;DHT22;9269;50.838;12.094;2023-06-10T10:10:24;30.50;24.80
18287;DHT22;9269;50.838;12.094;2023-06-10T10:12:56;30.50;25.30
18287;DHT22;9269;50.838;12.094;2023-06-10T10:15:30;30.50;25.30
18287;DHT22;9269;50.838;12.094;2023-06-10T10:18:07;30.50;25.60
18287;DHT22;9269;50.838;12.094;2023-06-10T10:20:45;30.60;25.40
18287;DHT22;9269;50.838;12.094;2023-06-10T10:23:21;30.50;25.30
18287;DHT22;9269;50.838;12.094;2023-06-10T10:25:56;30.60;25.20
18287;DHT22;9269;50.838;12.094;2023-06-10T10:28:31;30.50;25.20
18287;DHT22;9269;50.838;12.094;2023-06-10T10:31:10;30.40;25.60
18287;DHT22;9269;50.838;12.094;2023-06-10T10:33:48;30.50;25.90
18287;DHT22;9269;50.838;12.094;2023-06-10T10:36:24;30.60;25.40
18287;DHT22;9269;50.838;12.094;2023-06-10T10:38:56;30.80;25.10
18287;DHT22;9269;50.838;12.094;2023-06-10T10:41:28;31.00;24.80
18287;DHT22;9269;50.838;12.094;2023-06-10T10:44:00;31.10;25.00
18287;DHT22;9269;50.838;12.094;2023-06-10T10:46:42;31.30;25.00
18287;DHT22;9269;50.838;12.094;2023-06-10T10:49:14;31.30;24.60
18287;DHT22;9269;50.838;12.094;2023-06-10T10:51:55;31.20;24.80
18287;DHT22;9269;50.838;12.094;2023-06-10T10:54:30;31.00;24.70
18287;DHT22;9269;50.838;12.094;2023-06-10T10:57:10;30.60;24.90
18287;DHT22;9269;50.838;12.094;2023-06-10T10:59:55;30.60;24.90
18287;DHT22;9269;50.838;12.094;2023-06-10T11:02:43;30.70;25.30
18287;DHT22;9269;50.838;12.094;2023-06-10T11:05:15;30.90;25.10
18287;DHT22;9269;50.838;12.094;2023-06-10T11:07:55;31.20;24.20
18287;DHT22;9269;50.838;12.094;2023-06-10T11:10:32;31.30;24.00
18287;DHT22;9269;50.838;12.094;2023-06-10T11:13:07;31.40;22.40
18287;DHT22;9269;50.838;12.094;2023-06-10T11:15:43;31.50;21.70
18287;DHT22;9269;50.838;12.094;2023-06-10T11:18:23;31.60;22.00
18287;DHT22;9269;50.838;12.094;2023-06-10T11:20:55;31.60;21.60
18287;DHT22;9269;50.838;12.094;2023-06-10T11:23:38;31.80;21.20
18287;DHT22;9269;50.838;12.094;2023-06-10T11:26:15;31.80;20.80
18287;DHT22;9269;50.838;12.094;2023-06-10T11:29:07;31.90;20.70
18287;DHT22;9269;50.838;12.094;2023-06-10T11:31:50;32.00;20.40
18287;DHT22;9269;50.838;12.094;2023-06-10T11:34:24;32.00;19.80
18287;DHT22;9269;50.838;12.094;2023-06-10T11:36:55;32.10;19.40
18287;DHT22;9269;50.838;12.094;2023-06-10T11:39:29;32.20;17.60
18287;DHT22;9269;50.838;12.094;2023-06-10T11:41:58;32.20;17.80
18287;DHT22;9269;50.838;12.094;2023-06-10T11:44:28;32.00;17.60
18287;DHT22;9269;50.838;12.094;2023-06-10T11:47:00;32.00;18.10
18287;DHT22;9269;50.838;12.094;2023-06-10T11:49:33;32.00;17.40
18287;DHT22;9269;50.838;12.094;2023-06-10T11:52:05;32.20;17.50
18287;DHT22;9269;50.838;12.094;2023-06-10T11:54:34;32.30;17.60
18287;DHT22;9269;50.838;12.094;2023-06-10T11:57:04;32.40;17.30
18287;DHT22;9269;50.838;12.094;2023-06-10T11:59:36;32.30;17.40
18287;DHT22;9269;50.838;12.094;2023-06-10T12:02:14;32.30;17.10
18287;DHT22;9269;50.838;12.094;2023-06-10T12:05:09;32.30;17.30
18287;DHT22;9269;50.838;12.094;2023-06-10T12:07:40;32.20;15.90
18287;DHT22;9269;50.838;12.094;2023-06-10T12:10:11;32.10;16.60
18287;DHT22;9269;50.838;12.094;2023-06-10T12:12:46;32.10;17.10
18287;DHT22;9269;50.838;12.094;2023-06-10T12:15:24;32.20;16.70
18287;DHT22;9269;50.838;12.094;2023-06-10T12:17:56;32.20;17.30
18287;DHT22;9269;50.838;12.094;2023-06-10T12:20:29;32.20;16.90
18287;DHT22;9269;50.838;12.094;2023-06-10T12:23:07;32.10;16.80
18287;DHT22;9269;50.838;12.094;2023-06-10T12:25:38;32.10;17.00
18287;DHT22;9269;50.838;12.094;2023-06-10T12:28:10;32.10;16.90
18287;DHT22;9269;50.838;12.094;2023-06-10T12:30:39;32.20;16.70
18287;DHT22;9269;50.838;12.094;2023-06-10T12:33:16;32.20;17.10
18287;DHT22;9269;50.838;12.094;2023-06-10T12:35:51;32.30;16.20
18287;DHT22;9269;50.838;12.094;2023-06-10T12:38:24;32.30;16.70
18287;DHT22;9269;50.838;12.094;2023-06-10T12:41:01;32.40;16.40
18287;DHT22;9269;50.838;12.094;2023-06-10T12:43:32;32.30;16.20
18287;DHT22;9269;50.838;12.094;2023-06-10T12:46:09;32.40;16.20
18287;DHT22;9269;50.838;12.094;2023-06-10T12:48:49;32.50;15.30
18287;DHT22;9269;50.838;12.094;2023-06-10T12:51:25;32.60;15.80
18287;DHT22;9269;50.838;12.094;2023-06-10T12:53:54;32.60;15.30
18287;DHT22;9269;50.838;12.094;2023-06-10T12:56:25;32.50;15.10
18287;DHT22;9269;50.838;12.094;2023-06-10T12:58:56;32.60;15.10
18287;DHT22;9269;50.838;12.094;2023-06-10T13:01:29;32.60;15.20
18287;DHT22;9269;50.838;12.094;2023-06-10T13:03:59;32.70;15.20
18287;DHT22;9269;50.838;12.094;2023-06-10T13:06:33;32.70;14.80
18287;DHT22;9269;50.838;12.094;2023-06-10T13:09:06;32.70;14.30
18287;DHT22;9269;50.838;12.094;2023-06-10T13:11:41;32.70;14.80
18287;DHT22;9269;50.838;12.094;2023-06-10T13:14:12;32.80;15.00
18287;DHT22;9269;50.838;12.094;2023-06-10T13:16:41;32.90;15.10
18287;DHT22;9269;50.838;12.094;2023-06-10T13:19:12;32.80;15.10
18287;DHT22;9269;50.838;12.094;2023-06-10T13:21:43;32.90;15.10
18287;DHT22;9269;50.838;12.094;2023-06-10T13:24:14;32.90;14.60
18287;DHT22;9269;50.838;12.094;2023-06-10T13:26:46;32.90;14.80
18287;DHT22;9269;50.838;12.094;2023-06-10T13:29:17;33.00;14.60
18287;DHT22;9269;50.838;12.094;2023-06-10T13:31:48;32.90;14.60
18287;DHT22;9269;50.838;12.094;2023-06-10T13:34:21;33.00;13.60
18287;DHT22;9269;50.838;12.094;2023-06-10T13:36:55;33.00;14.50
18287;DHT22;9269;50.838;12.094;2023-06-10T13:39:26;33.00;14.30
18287;DHT22;9269;50.838;12.094;2023-06-10T13:41:56;33.10;13.70
18287;DHT22;9269;50.838;12.094;2023-06-10T13:44:27;33.10;14.80
18287;DHT22;9269;50.838;12.094;2023-06-10T13:47:03;33.10;14.30
18287;DHT22;9269;50.838;12.094;2023-06-10T13:49:34;33.10;14.50
18287;DHT22;9269;50.838;12.094;2023-06-10T13:52:07;32.90;14.30
18287;DHT22;9269;50.838;12.094;2023-06-10T13:54:37;32.90;14.30
18287;DHT22;9269;50.838;12.094;2023-06-10T13:57:08;32.70;14.70
18287;DHT22;9269;50.838;12.094;2023-06-10T13:59:40;32.40;14.90
18287;DHT22;9269;50.838;12.094;2023-06-10T14:02:12;32.30;14.90
18287;DHT22;9269;50.838;12.094;2023-06-10T14:04:43;32.10;15.20
18287;DHT22;9269;50.838;12.094;2023-06-10T14:07:15;32.10;14.80
18287;DHT22;9269;50.838;12.094;2023-06-10T14:09:47;32.00;14.80
18287;DHT22;9269;50.838;12.094;2023-06-10T14:12:17;32.00;14.90
18287;DHT22;9269;50.838;12.094;2023-06-10T14:14:47;32.00;14.40
18287;DHT22;9269;50.838;12.094;2023-06-10T14:17:17;31.90;14.10
18287;DHT22;9269;50.838;12.094;2023-06-10T14:19:48;31.70;14.60
18287;DHT22;9269;50.838;12.094;2023-06-10T14:22:20;31.50;15.00
18287;DHT22;9269;50.838;12.094;2023-06-10T14:24:50;31.50;15.40
18287;DHT22;9269;50.838;12.094;2023-06-10T14:27:20;31.40;15.80
18287;DHT22;9269;50.838;12.094;2023-06-10T14:29:49;31.50;16.00
18287;DHT22;9269;50.838;12.094;2023-06-10T14:32:20;31.60;15.90
18287;DHT22;9269;50.838;12.094;2023-06-10T14:34:52;31.80;15.70
18287;DHT22;9269;50.838;12.094;2023-06-10T14:37:30;31.90;16.10
18287;DHT22;9269;50.838;12.094;2023-06-10T14:40:02;32.00;15.70
18287;DHT22;9269;50.838;12.094;2023-06-10T14:42:40;32.20;15.10
18287;DHT22;9269;50.838;12.094;2023-06-10T14:45:11;32.20;15.70
18287;DHT22;9269;50.838;12.094;2023-06-10T14:47:45;32.30;15.70
18287;DHT22;9269;50.838;12.094;2023-06-10T14:50:17;32.30;15.50
18287;DHT22;9269;50.838;12.094;2023-06-10T14:52:53;32.40;15.10
18287;DHT22;9269;50.838;12.094;2023-06-10T14:55:26;32.40;15.50
18287;DHT22;9269;50.838;12.094;2023-06-10T14:57:58;32.30;15.00
18287;DHT22;9269;50.838;12.094;2023-06-10T15:00:28;32.30;14.90
18287;DHT22;9269;50.838;12.094;2023-06-10T15:03:02;32.30;15.30
18287;DHT22;9269;50.838;12.094;2023-06-10T15:05:33;32.30;15.20
18287;DHT22;9269;50.838;12.094;2023-06-10T15:08:06;32.30;15.20
18287;DHT22;9269;50.838;12.094;2023-06-10T15:10:41;32.30;15.80
18287;DHT22;9269;50.838;12.094;2023-06-10T15:13:13;32.30;15.70
18287;DHT22;9269;50.838;12.094;2023-06-10T15:15:43;32.30;15.10
18287;DHT22;9269;50.838;12.094;2023-06-10T15:18:18;32.30;15.20
18287;DHT22;9269;50.838;12.094;2023-06-10T15:20:50;32.30;15.60
18287;DHT22;9269;50.838;12.094;2023-06-10T15:23:26;32.10;15.80
18287;DHT22;9269;50.838;12.094;2023-06-10T15:25:57;32.20;15.60
18287;DHT22;9269;50.838;12.094;2023-06-10T15:28:29;32.20;15.00
18287;DHT22;9269;50.838;12.094;2023-06-10T15:30:58;32.10;14.90
18287;DHT22;9269;50.838;12.094;2023-06-10T15:33:30;31.90;14.70
18287;DHT22;9269;50.838;12.094;2023-06-10T15:36:01;31.90;15.10
18287;DHT22;9269;50.838;12.094;2023-06-10T15:38:35;31.90;15.30
18287;DHT22;9269;50.838;12.094;2023-06-10T15:41:06;31.90;14.80
18287;DHT22;9269;50.838;12.094;2023-06-10T15:43:38;32.00;14.80
18287;DHT22;9269;50.838;12.094;2023-06-10T15:46:09;31.90;14.00
18287;DHT22;9269;50.838;12.094;2023-06-10T15:48:46;31.80;13.20
18287;DHT22;9269;50.838;12.094;2023-06-10T15:51:18;32.00;13.60
18287;DHT22;9269;50.838;12.094;2023-06-10T15:53:53;31.90;12.80